createdAt,value
2019-01-14T00:01:16.666Z,17.88
2019-01-14T00:03:45.325Z,17.86
2019-01-14T00:06:13.506Z,17.88
2019-01-14T00:08:41.730Z,17.88
2019-01-14T00:11:09.882Z,17.90
2019-01-14T00:13:38.134Z,17.92
2019-01-14T00:16:06.326Z,17.92
2019-01-14T00:18:34.602Z,17.94
2019-01-14T00:21:02.772Z,17.89
2019-01-14T00:23:30.985Z,17.93
2019-01-14T00:25:59.162Z,17.96
2019-01-14T00:28:27.337Z,17.92
2019-01-14T00:30:55.537Z,17.87
2019-01-14T00:33:23.705Z,17.89
2019-01-14T00:35:52.536Z,17.86
2019-01-14T00:38:20.772Z,17.88
2019-01-14T00:40:49.004Z,17.89
2019-01-14T00:43:17.221Z,17.94
2019-01-14T00:45:45.419Z,17.89
2019-01-14T00:48:13.549Z,17.90
2019-01-14T00:50:41.692Z,17.92
2019-01-14T00:53:09.858Z,17.89
2019-01-14T00:55:38.046Z,17.91
2019-01-14T00:58:06.251Z,17.94
2019-01-14T01:00:34.617Z,17.99
2019-01-14T01:03:02.761Z,17.99
2019-01-14T01:05:30.931Z,17.98
2019-01-14T01:07:59.122Z,17.97
2019-01-14T01:10:27.254Z,17.93
2019-01-14T01:12:55.444Z,17.93
2019-01-14T01:15:23.718Z,17.99
2019-01-14T01:17:51.875Z,17.98
2019-01-14T01:20:20.804Z,17.97
2019-01-14T01:22:48.974Z,17.98
2019-01-14T01:25:17.151Z,17.96
2019-01-14T01:27:45.310Z,17.92
2019-01-14T01:30:14.632Z,17.93
2019-01-14T01:32:42.750Z,17.92
2019-01-14T01:35:11.365Z,17.92
2019-01-14T01:37:39.553Z,17.91
2019-01-14T01:40:09.383Z,17.96
2019-01-14T01:42:37.573Z,17.89
2019-01-14T01:45:06.012Z,17.96
2019-01-14T01:47:34.229Z,17.91
2019-01-14T01:50:02.461Z,17.99
2019-01-14T01:52:30.646Z,17.92
2019-01-14T01:55:01.676Z,17.92
2019-01-14T01:57:29.823Z,17.91
2019-01-14T01:59:58.003Z,17.90
2019-01-14T02:02:26.145Z,17.93
2019-01-14T02:04:54.321Z,17.92
2019-01-14T02:07:22.514Z,17.93
2019-01-14T02:09:50.724Z,17.96
2019-01-14T02:12:18.943Z,17.96
2019-01-14T02:14:47.072Z,17.95
2019-01-14T02:17:15.735Z,17.91
2019-01-14T02:19:43.915Z,17.90
2019-01-14T02:22:12.071Z,17.93
2019-01-14T02:24:40.351Z,17.99
2019-01-14T02:27:08.495Z,17.94
2019-01-14T02:29:36.684Z,17.97
2019-01-14T02:32:04.840Z,17.97
2019-01-14T02:34:33.049Z,17.97
2019-01-14T02:37:01.164Z,17.98
2019-01-14T02:39:29.387Z,17.98
2019-01-14T02:41:57.614Z,17.95
2019-01-14T02:44:25.830Z,18.01
2019-01-14T02:46:54.054Z,17.95
2019-01-14T02:49:22.248Z,17.94
2019-01-14T02:51:50.425Z,17.95
2019-01-14T02:54:18.626Z,17.98
2019-01-14T02:56:46.753Z,17.99
2019-01-14T02:59:14.999Z,18.01
2019-01-14T03:01:43.231Z,17.92
2019-01-14T03:04:11.363Z,17.97
2019-01-14T03:06:39.525Z,17.94
2019-01-14T03:09:08.095Z,17.96
2019-01-14T03:11:36.250Z,17.99
2019-01-14T03:14:04.457Z,17.96
2019-01-14T03:16:32.607Z,17.97
2019-01-14T03:19:00.830Z,17.93
2019-01-14T03:21:29.025Z,17.96
2019-01-14T03:23:57.199Z,17.99
2019-01-14T03:26:25.379Z,17.96
2019-01-14T03:28:53.535Z,17.96
2019-01-14T03:31:21.825Z,18.02
2019-01-14T03:33:49.970Z,17.95
2019-01-14T03:36:18.159Z,17.96
2019-01-14T03:38:46.334Z,18.00
2019-01-14T03:41:14.518Z,17.92
2019-01-14T03:43:42.716Z,17.97
2019-01-14T03:46:10.897Z,18.01
2019-01-14T03:48:39.053Z,18.03
2019-01-14T03:51:07.287Z,18.02
2019-01-14T03:53:35.504Z,17.94
2019-01-14T03:56:03.815Z,17.97
2019-01-14T03:58:32.148Z,17.92
2019-01-14T04:01:00.414Z,17.99
2019-01-14T04:03:28.739Z,17.99
2019-01-14T04:05:56.958Z,18.06
2019-01-14T04:08:25.197Z,18.05
2019-01-14T04:10:53.463Z,18.04
2019-01-14T04:13:21.667Z,18.03
2019-01-14T04:15:49.802Z,18.03
2019-01-14T04:18:18.042Z,18.00
2019-01-14T04:20:46.202Z,17.96
2019-01-14T04:23:14.358Z,18.02
2019-01-14T04:25:42.524Z,18.08
2019-01-14T04:28:10.781Z,18.02
2019-01-14T04:30:38.967Z,18.04
2019-01-14T04:33:07.202Z,18.11
2019-01-14T04:35:35.369Z,18.08
2019-01-14T04:38:03.571Z,18.02
2019-01-14T04:40:31.735Z,18.03
2019-01-14T04:42:59.894Z,18.05
2019-01-14T04:45:28.093Z,18.07
2019-01-14T04:47:56.222Z,18.06
2019-01-14T04:50:24.466Z,18.06
2019-01-14T04:52:52.652Z,18.04
2019-01-14T04:55:20.862Z,18.08
2019-01-14T04:57:49.115Z,18.06
2019-01-14T05:00:21.202Z,18.11
2019-01-14T05:02:49.474Z,18.09
2019-01-14T05:05:17.649Z,18.12
2019-01-14T05:07:45.840Z,18.22
2019-01-14T05:10:14.370Z,18.24
2019-01-14T05:12:42.650Z,18.34
2019-01-14T05:15:11.218Z,18.33
2019-01-14T05:17:39.409Z,18.35
2019-01-14T05:20:08.369Z,18.33
2019-01-14T05:22:36.545Z,18.35
2019-01-14T05:25:04.918Z,18.38
2019-01-14T05:27:33.055Z,18.39
2019-01-14T05:30:01.266Z,18.48
2019-01-14T05:32:29.423Z,18.47
2019-01-14T05:34:57.539Z,18.51
2019-01-14T05:37:25.703Z,18.60
2019-01-14T05:39:53.882Z,18.48
2019-01-14T05:42:22.160Z,18.56
2019-01-14T05:44:50.355Z,18.53
2019-01-14T05:47:18.478Z,18.57
2019-01-14T05:49:46.626Z,18.60
2019-01-14T05:52:14.850Z,18.58
2019-01-14T05:54:43.001Z,18.62
2019-01-14T05:57:11.205Z,18.63
2019-01-14T05:59:39.398Z,18.65
2019-01-14T06:02:07.555Z,18.64
2019-01-14T06:04:35.718Z,18.66
2019-01-14T06:07:03.878Z,18.76
2019-01-14T06:09:32.116Z,18.76
2019-01-14T06:12:00.283Z,18.76
2019-01-14T06:14:28.421Z,18.83
2019-01-14T06:16:56.597Z,18.80
2019-01-14T06:19:25.261Z,18.88
2019-01-14T06:21:53.442Z,18.94
2019-01-14T06:24:21.585Z,18.94
2019-01-14T06:26:49.867Z,18.90
2019-01-14T06:29:18.025Z,18.88
2019-01-14T06:31:46.202Z,18.92
2019-01-14T06:34:14.442Z,18.96
2019-01-14T06:36:42.593Z,19.07
2019-01-14T06:39:10.748Z,19.04
2019-01-14T06:41:38.905Z,19.12
2019-01-14T06:44:07.108Z,19.20
2019-01-14T06:46:35.281Z,19.22
2019-01-14T06:49:03.454Z,19.28
2019-01-14T06:51:31.630Z,19.27
2019-01-14T06:53:59.809Z,19.31
2019-01-14T06:56:27.953Z,19.42
2019-01-14T06:58:56.111Z,19.42
2019-01-14T07:01:24.250Z,19.42
2019-01-14T07:03:52.742Z,19.52
2019-01-14T07:06:22.343Z,19.46
2019-01-14T07:08:50.655Z,19.59
2019-01-14T07:11:19.414Z,19.59
2019-01-14T07:13:47.553Z,19.62
2019-01-14T07:16:15.711Z,19.71
2019-01-14T07:18:43.842Z,19.73
2019-01-14T07:21:12.095Z,19.88
2019-01-14T07:23:40.261Z,19.85
2019-01-14T07:26:08.438Z,19.80
2019-01-14T07:28:37.077Z,19.88
2019-01-14T07:31:05.363Z,19.98
2019-01-14T07:33:33.509Z,19.98
2019-01-14T07:36:01.782Z,20.09
2019-01-14T07:38:29.962Z,20.10
2019-01-14T07:40:58.114Z,19.99
2019-01-14T07:43:26.389Z,20.10
2019-01-14T07:45:54.576Z,20.06
2019-01-14T07:48:22.733Z,20.06
2019-01-14T07:50:50.902Z,20.12
2019-01-14T07:53:19.130Z,20.15
2019-01-14T07:55:47.370Z,20.18
2019-01-14T07:58:15.505Z,20.19
2019-01-14T08:00:43.649Z,20.22
2019-01-14T08:03:12.081Z,20.21
2019-01-14T08:05:40.281Z,20.29
2019-01-14T08:08:14.021Z,20.29
2019-01-14T08:10:38.943Z,20.35
2019-01-14T08:13:07.231Z,20.26
2019-01-14T08:15:35.417Z,20.36
2019-01-14T08:18:03.595Z,20.37
2019-01-14T08:20:31.782Z,20.50
2019-01-14T08:23:00.011Z,20.44
2019-01-14T08:25:28.208Z,20.43
2019-01-14T08:27:56.341Z,20.51
2019-01-14T08:30:24.471Z,20.44
2019-01-14T08:32:52.577Z,20.44
2019-01-14T08:35:20.740Z,20.55
2019-01-14T08:37:48.862Z,20.51
2019-01-14T08:40:17.494Z,20.63
2019-01-14T08:42:45.609Z,20.67
2019-01-14T08:45:13.818Z,20.64
2019-01-14T08:47:41.937Z,20.67
2019-01-14T08:50:14.477Z,20.61
2019-01-14T08:52:42.598Z,20.65
2019-01-14T08:55:10.723Z,20.80
2019-01-14T08:57:38.849Z,20.73
2019-01-14T09:00:08.532Z,20.67
2019-01-14T09:02:36.666Z,20.60
2019-01-14T09:05:05.190Z,20.67
2019-01-14T09:07:33.305Z,20.72
2019-01-14T09:10:01.424Z,20.70
2019-01-14T09:12:29.547Z,20.62
2019-01-14T09:14:57.667Z,20.67
2019-01-14T09:17:25.813Z,20.78
2019-01-14T09:19:54.013Z,20.61
2019-01-14T09:22:22.150Z,20.72
2019-01-14T09:24:50.261Z,20.58
2019-01-14T09:27:18.387Z,20.57
2019-01-14T09:29:46.497Z,20.62
2019-01-14T09:32:14.723Z,20.73
2019-01-14T09:34:42.838Z,20.65
2019-01-14T09:37:10.968Z,20.65
2019-01-14T09:39:39.097Z,20.71
2019-01-14T09:42:07.223Z,20.84
2019-01-14T09:44:35.335Z,20.70
2019-01-14T09:47:03.532Z,20.73
2019-01-14T09:49:31.658Z,20.57
2019-01-14T09:51:59.826Z,20.57
2019-01-14T09:54:27.956Z,20.62
2019-01-14T09:56:56.094Z,20.59
2019-01-14T09:59:24.215Z,20.70
2019-01-14T10:01:52.332Z,20.63
2019-01-14T10:04:20.463Z,20.58
2019-01-14T10:06:48.577Z,20.63
2019-01-14T10:09:16.721Z,20.75
2019-01-14T10:11:44.830Z,20.66
2019-01-14T10:14:12.971Z,20.21
2019-01-14T10:16:42.189Z,20.58
2019-01-14T10:19:10.331Z,20.65
2019-01-14T10:21:38.453Z,20.72
2019-01-14T10:24:07.644Z,20.75
2019-01-14T10:26:35.764Z,20.83
2019-01-14T10:29:03.877Z,20.96
2019-01-14T10:31:32.005Z,20.90
2019-01-14T10:34:00.119Z,20.82
2019-01-14T10:36:28.242Z,20.87
2019-01-14T10:38:56.381Z,20.85
2019-01-14T10:41:24.519Z,20.74
2019-01-14T10:43:52.638Z,20.77
2019-01-14T10:46:20.770Z,20.99
2019-01-14T10:48:48.904Z,20.75
2019-01-14T10:51:17.034Z,20.70
2019-01-14T10:53:45.179Z,20.75
2019-01-14T10:56:13.327Z,20.69
2019-01-14T10:58:41.454Z,20.77
2019-01-14T11:01:09.570Z,20.86
2019-01-14T11:03:37.688Z,20.76
2019-01-14T11:06:05.822Z,20.61
2019-01-14T11:08:33.971Z,20.68
2019-01-14T11:11:02.106Z,20.98
2019-01-14T11:13:30.243Z,20.67
2019-01-14T11:15:58.369Z,20.83
2019-01-14T11:18:26.513Z,20.63
2019-01-14T11:20:54.753Z,20.86
2019-01-14T11:23:22.880Z,20.76
2019-01-14T11:25:51.021Z,20.68
2019-01-14T11:28:19.189Z,20.70
2019-01-14T11:30:47.285Z,20.68
2019-01-14T11:33:15.410Z,20.61
2019-01-14T11:35:43.533Z,20.79
2019-01-14T11:38:29.710Z,20.86
2019-01-14T11:40:57.829Z,20.84
2019-01-14T11:43:25.960Z,20.99
2019-01-14T11:45:54.077Z,20.79
2019-01-14T11:48:22.189Z,20.68
2019-01-14T11:50:50.395Z,20.68
2019-01-14T11:53:18.512Z,20.67
2019-01-14T11:55:46.625Z,20.69
2019-01-14T11:58:14.749Z,20.68
2019-01-14T12:00:42.883Z,20.79
2019-01-14T12:03:11.025Z,20.70
2019-01-14T12:05:39.234Z,20.55
2019-01-14T12:08:07.438Z,20.66
2019-01-14T12:10:35.595Z,20.77
2019-01-14T12:13:03.883Z,20.96
2019-01-14T12:15:32.065Z,21.05
2019-01-14T12:18:00.374Z,21.11
2019-01-14T12:20:28.628Z,21.28
2019-01-14T12:22:56.794Z,21.15
2019-01-14T12:25:24.935Z,20.92
2019-01-14T12:27:53.222Z,20.88
2019-01-14T12:30:22.993Z,21.09
2019-01-14T12:32:51.177Z,20.98
2019-01-14T12:35:19.340Z,20.78
2019-01-14T12:37:47.593Z,20.78
2019-01-14T12:40:15.843Z,20.77
2019-01-14T12:42:43.994Z,20.73
2019-01-14T12:45:12.233Z,20.68
2019-01-14T12:47:40.454Z,20.62
2019-01-14T12:50:09.833Z,20.54
2019-01-14T12:52:44.028Z,20.32
2019-01-14T12:55:08.842Z,20.56
2019-01-14T12:57:37.194Z,20.55
2019-01-14T13:00:06.803Z,20.43
2019-01-14T13:02:35.160Z,20.43
2019-01-14T13:05:03.382Z,20.52
2019-01-14T13:07:31.560Z,20.67
2019-01-14T13:09:59.692Z,20.54
2019-01-14T13:12:28.009Z,20.49
2019-01-14T13:14:56.214Z,20.46
2019-01-14T13:17:24.715Z,20.46
2019-01-14T13:19:53.018Z,20.40
2019-01-14T13:22:21.435Z,20.50
2019-01-14T13:24:49.806Z,20.48
2019-01-14T13:27:18.007Z,20.49
2019-01-14T13:29:46.331Z,20.40
2019-01-14T13:32:14.640Z,20.40
2019-01-14T13:34:44.829Z,20.29
2019-01-14T13:37:15.255Z,20.36
2019-01-14T13:39:43.550Z,20.40
2019-01-14T13:42:11.845Z,20.37
2019-01-14T13:44:40.161Z,20.37
2019-01-14T13:47:08.531Z,20.43
2019-01-14T13:49:36.633Z,20.47
2019-01-14T13:52:04.881Z,20.43
2019-01-14T13:54:33.083Z,20.39
2019-01-14T13:57:01.320Z,20.43
2019-01-14T13:59:29.586Z,20.42
2019-01-14T14:01:57.826Z,20.45
2019-01-14T14:04:25.975Z,20.40
2019-01-14T14:06:54.200Z,20.39
2019-01-14T14:09:22.313Z,20.42
2019-01-14T14:11:50.533Z,20.31
2019-01-14T14:14:18.685Z,20.38
2019-01-14T14:16:46.862Z,20.34
2019-01-14T14:19:15.015Z,20.27
2019-01-14T14:21:43.177Z,20.32
2019-01-14T14:24:11.334Z,20.24
2019-01-14T14:26:39.461Z,20.28
2019-01-14T14:29:07.728Z,20.32
2019-01-14T14:31:35.856Z,20.28
2019-01-14T14:34:04.098Z,20.31
2019-01-14T14:36:32.230Z,20.27
2019-01-14T14:39:00.378Z,20.30
2019-01-14T14:41:28.577Z,20.28
2019-01-14T14:43:56.827Z,20.29
2019-01-14T14:46:25.088Z,20.32
2019-01-14T14:48:53.322Z,20.35
2019-01-14T14:51:21.517Z,20.32
2019-01-14T14:53:49.781Z,20.29
2019-01-14T14:56:18.051Z,20.32
2019-01-14T14:58:46.230Z,20.30
2019-01-14T15:01:14.541Z,20.34
2019-01-14T15:03:42.846Z,20.36
2019-01-14T15:06:11.105Z,20.30
2019-01-14T15:08:39.467Z,20.32
2019-01-14T15:11:07.707Z,20.27
2019-01-14T15:13:36.004Z,20.24
2019-01-14T15:16:04.355Z,20.42
2019-01-14T15:18:32.573Z,20.36
2019-01-14T15:21:00.847Z,20.29
2019-01-14T15:23:29.133Z,20.29
2019-01-14T15:25:57.414Z,20.28
2019-01-14T15:28:25.688Z,20.34
2019-01-14T15:30:53.961Z,20.22
2019-01-14T15:33:22.190Z,20.24
2019-01-14T15:35:50.364Z,20.24
2019-01-14T15:38:18.569Z,20.21
2019-01-14T15:40:46.814Z,20.20
2019-01-14T15:43:15.095Z,20.24
2019-01-14T15:45:43.366Z,20.19
2019-01-14T15:48:11.717Z,20.17
2019-01-14T15:50:39.931Z,20.21
2019-01-14T15:53:08.167Z,20.16
2019-01-14T15:55:36.462Z,20.22
2019-01-14T15:58:04.741Z,20.13
2019-01-14T16:00:33.017Z,20.13
2019-01-14T16:03:01.278Z,20.13
2019-01-14T16:05:29.602Z,20.18
2019-01-14T16:07:57.897Z,20.16
2019-01-14T16:10:26.366Z,20.21
2019-01-14T16:12:54.665Z,20.19
2019-01-14T16:15:22.942Z,20.18
2019-01-14T16:17:51.191Z,20.14
2019-01-14T16:20:20.373Z,20.14
2019-01-14T16:22:48.642Z,20.14
2019-01-14T16:25:16.965Z,20.19
2019-01-14T16:27:45.160Z,20.10
2019-01-14T16:30:14.799Z,20.13
2019-01-14T16:32:43.101Z,20.15
2019-01-14T16:35:11.315Z,20.17
2019-01-14T16:37:39.543Z,20.16
2019-01-14T16:40:07.822Z,20.19
2019-01-14T16:42:35.993Z,20.12
2019-01-14T16:45:04.942Z,20.09
2019-01-14T16:47:33.336Z,20.09
2019-01-14T16:50:01.734Z,20.05
2019-01-14T16:52:30.264Z,20.08
2019-01-14T16:54:58.357Z,20.06
2019-01-14T16:57:26.475Z,20.04
2019-01-14T16:59:54.626Z,20.07
2019-01-14T17:02:22.834Z,20.00
2019-01-14T17:04:50.978Z,20.05
2019-01-14T17:07:19.186Z,20.03
2019-01-14T17:09:47.292Z,20.05
2019-01-14T17:12:15.749Z,20.08
2019-01-14T17:14:43.849Z,20.04
2019-01-14T17:17:12.082Z,20.01
2019-01-14T17:19:40.252Z,19.99
2019-01-14T17:22:08.430Z,20.06
2019-01-14T17:24:36.625Z,20.01
2019-01-14T17:27:04.742Z,20.02
2019-01-14T17:29:32.865Z,19.98
2019-01-14T17:32:00.986Z,20.00
2019-01-14T17:34:29.142Z,20.01
2019-01-14T17:36:57.346Z,20.01
2019-01-14T17:39:25.459Z,20.03
2019-01-14T17:41:53.886Z,20.01
2019-01-14T17:44:22.003Z,20.01
2019-01-14T17:46:50.265Z,19.99
2019-01-14T17:49:18.421Z,19.92
2019-01-14T17:51:46.569Z,19.96
2019-01-14T17:54:14.690Z,20.02
2019-01-14T17:56:42.834Z,20.06
2019-01-14T17:59:11.010Z,20.01
2019-01-14T18:01:39.394Z,20.02
2019-01-14T18:04:07.520Z,19.97
2019-01-14T18:06:35.693Z,20.05
2019-01-14T18:09:05.681Z,20.04
2019-01-14T18:11:33.901Z,20.00
2019-01-14T18:14:02.078Z,20.04
2019-01-14T18:16:30.648Z,19.59
2019-01-14T18:18:58.863Z,20.00
2019-01-14T18:21:26.997Z,20.03
2019-01-14T18:23:55.182Z,20.05
2019-01-14T18:26:23.330Z,20.05
2019-01-14T18:28:54.069Z,20.02
2019-01-14T18:31:22.543Z,20.06
2019-01-14T18:33:50.798Z,19.99
2019-01-14T18:36:18.977Z,20.05
2019-01-14T18:38:47.158Z,20.03
2019-01-14T18:41:15.450Z,20.10
2019-01-14T18:43:43.685Z,20.15
2019-01-14T18:46:11.809Z,20.24
2019-01-14T18:48:40.073Z,20.18
2019-01-14T18:51:08.233Z,20.18
2019-01-14T18:53:36.358Z,20.25
2019-01-14T18:56:04.549Z,20.20
2019-01-14T18:58:32.685Z,20.22
2019-01-14T19:01:00.897Z,20.18
2019-01-14T19:03:29.055Z,20.28
2019-01-14T19:05:57.190Z,20.20
2019-01-14T19:08:25.314Z,20.10
2019-01-14T19:10:54.536Z,20.13
2019-01-14T19:13:22.867Z,20.11
2019-01-14T19:15:51.018Z,20.12
2019-01-14T19:18:19.133Z,20.18
2019-01-14T19:20:47.426Z,20.25
2019-01-14T19:23:15.542Z,20.28
2019-01-14T19:25:43.681Z,20.23
2019-01-14T19:28:11.820Z,20.19
2019-01-14T19:30:40.022Z,20.20
2019-01-14T19:33:08.225Z,20.18
2019-01-14T19:35:36.387Z,20.25
2019-01-14T19:38:04.518Z,20.20
2019-01-14T19:40:32.762Z,20.39
2019-01-14T19:43:00.949Z,20.75
2019-01-14T19:45:29.098Z,20.32
2019-01-14T19:47:57.277Z,20.25
2019-01-14T19:50:25.454Z,20.24
2019-01-14T19:52:54.462Z,20.21
2019-01-14T19:55:22.597Z,20.28
2019-01-14T19:57:50.816Z,20.40
2019-01-14T20:00:20.405Z,20.30
2019-01-14T20:02:48.566Z,20.21
2019-01-14T20:05:16.726Z,20.27
2019-01-14T20:07:44.886Z,20.25
2019-01-14T20:10:13.524Z,20.13
2019-01-14T20:12:41.681Z,20.17
2019-01-14T20:15:10.649Z,20.27
2019-01-14T20:17:38.818Z,20.16
2019-01-14T20:20:07.062Z,20.15
2019-01-14T20:22:35.352Z,20.16
2019-01-14T20:25:03.580Z,19.91
2019-01-14T20:27:33.207Z,20.13
2019-01-14T20:30:01.419Z,20.15
2019-01-14T20:32:29.544Z,20.11
2019-01-14T20:34:57.679Z,20.12
2019-01-14T20:37:25.842Z,20.23
2019-01-14T20:39:53.971Z,20.18
2019-01-14T20:42:22.104Z,20.15
2019-01-14T20:44:50.234Z,20.14
2019-01-14T20:47:18.352Z,20.13
2019-01-14T20:49:46.566Z,20.13
2019-01-14T20:52:14.690Z,20.23
2019-01-14T20:54:42.899Z,20.15
2019-01-14T20:57:11.301Z,20.09
2019-01-14T20:59:39.536Z,20.16
2019-01-14T21:02:07.845Z,20.17
2019-01-14T21:04:36.142Z,20.14
2019-01-14T21:07:04.673Z,20.18
2019-01-14T21:09:32.974Z,20.22
2019-01-14T21:12:01.340Z,20.22
2019-01-14T21:14:29.592Z,20.17
2019-01-14T21:16:57.951Z,20.16
2019-01-14T21:19:26.217Z,20.22
2019-01-14T21:21:54.592Z,20.27
2019-01-14T21:24:22.945Z,20.26
2019-01-14T21:26:51.354Z,20.16
2019-01-14T21:29:19.702Z,20.21
2019-01-14T21:31:47.892Z,20.19
2019-01-14T21:34:16.229Z,20.19
2019-01-14T21:36:44.482Z,20.22
2019-01-14T21:39:12.746Z,20.32
2019-01-14T21:41:41.135Z,20.42
2019-01-14T21:44:09.394Z,20.30
2019-01-14T21:46:37.670Z,20.23
2019-01-14T21:49:05.901Z,20.22
2019-01-14T21:51:34.165Z,20.22
2019-01-14T21:54:02.519Z,20.16
2019-01-14T21:56:30.841Z,20.18
2019-01-14T21:58:59.132Z,20.20
2019-01-14T22:01:27.347Z,20.31
2019-01-14T22:03:55.650Z,20.20
2019-01-14T22:06:23.924Z,20.21
2019-01-14T22:08:52.332Z,20.21
2019-01-14T22:11:20.599Z,20.32
2019-01-14T22:13:48.918Z,20.27
2019-01-14T22:16:18.016Z,20.23
2019-01-14T22:18:46.363Z,20.27
2019-01-14T22:21:14.677Z,20.19
2019-01-14T22:23:42.944Z,20.19
2019-01-14T22:26:11.237Z,20.21
2019-01-14T22:28:39.464Z,20.27
2019-01-14T22:31:07.702Z,20.28
2019-01-14T22:33:36.037Z,20.21
2019-01-14T22:36:04.317Z,20.12
2019-01-14T22:38:32.557Z,20.05
2019-01-14T22:41:00.776Z,20.10
2019-01-14T22:43:28.979Z,20.03
2019-01-14T22:45:57.171Z,20.03
2019-01-14T22:48:25.368Z,20.09
2019-01-14T22:50:53.526Z,20.04
2019-01-14T22:53:21.668Z,20.10
2019-01-14T22:55:49.850Z,20.08
2019-01-14T22:58:17.991Z,20.07
2019-01-14T23:01:01.236Z,20.14
2019-01-14T23:03:29.370Z,20.18
2019-01-14T23:05:57.503Z,20.15
2019-01-14T23:08:25.650Z,20.13
2019-01-14T23:10:53.898Z,20.11
2019-01-14T23:13:22.044Z,20.18
2019-01-14T23:15:50.226Z,20.15
2019-01-14T23:18:18.378Z,20.21
2019-01-14T23:20:46.531Z,20.07
2019-01-14T23:23:14.687Z,20.16
2019-01-14T23:25:42.844Z,20.00
2019-01-14T23:28:11.021Z,20.09
2019-01-14T23:30:39.180Z,19.94
2019-01-14T23:33:07.322Z,19.94
2019-01-14T23:35:35.449Z,19.96
2019-01-14T23:38:03.597Z,19.98
2019-01-14T23:40:31.718Z,19.95
2019-01-14T23:42:59.893Z,20.01
2019-01-14T23:45:28.009Z,19.97
2019-01-14T23:47:56.146Z,19.95
2019-01-14T23:50:24.297Z,19.97
2019-01-14T23:52:52.429Z,19.93
2019-01-14T23:55:20.594Z,19.90
2019-01-14T23:57:48.726Z,19.96
